createdAt,value
2022-10-01T00:02:15.917Z,98581.69
2022-10-01T00:04:46.183Z,98554.16
2022-10-01T00:07:15.471Z,98631.44
2022-10-01T00:09:43.864Z,98605.69
2022-10-01T00:12:15.951Z,98569.59
2022-10-01T00:14:44.720Z,98606.94
2022-10-01T00:17:14.222Z,98595.69
2022-10-01T00:19:42.427Z,98618.16
2022-10-01T00:22:10.623Z,98612.69
2022-10-01T00:24:38.932Z,98604.00
2022-10-01T00:27:07.099Z,98526.63
2022-10-01T00:29:35.964Z,98562.84
2022-10-01T00:32:04.149Z,98554.28
2022-10-01T00:34:33.860Z,98530.41
2022-10-01T00:37:01.964Z,98591.84
2022-10-01T00:39:30.068Z,98510.84
2022-10-01T00:41:58.092Z,98618.41
2022-10-01T00:44:32.922Z,98618.50
2022-10-01T00:47:06.120Z,98626.13
2022-10-01T00:49:39.772Z,98631.44
2022-10-01T00:52:11.908Z,98644.50
2022-10-01T00:54:45.290Z,98633.03
2022-10-01T00:57:15.297Z,98635.81
2022-10-01T00:59:43.917Z,98639.66
2022-10-01T01:02:12.215Z,98625.66
2022-10-01T01:04:42.140Z,98624.19
2022-10-01T01:07:10.879Z,98613.56
2022-10-01T01:09:41.640Z,98632.78
2022-10-01T01:12:20.251Z,98595.34
2022-10-01T01:15:02.743Z,98624.09
2022-10-01T01:17:36.358Z,98603.09
2022-10-01T01:20:24.218Z,98616.72
2022-10-01T01:23:00.616Z,98612.97
2022-10-01T01:25:38.428Z,98601.84
2022-10-01T01:28:21.135Z,98601.13
2022-10-01T01:30:54.463Z,98604.63
2022-10-01T01:33:26.308Z,98596.78
2022-10-01T01:35:58.545Z,98582.19
2022-10-01T01:38:29.462Z,98595.69
2022-10-01T01:41:01.892Z,98573.75
2022-10-01T01:43:34.651Z,98568.53
2022-10-01T01:46:06.568Z,98576.75
2022-10-01T01:48:36.928Z,98576.38
2022-10-01T01:51:12.439Z,98571.41
2022-10-01T01:53:48.045Z,98577.19
2022-10-01T01:56:17.338Z,98547.31
2022-10-01T01:58:47.440Z,98559.03
2022-10-01T02:01:34.408Z,98561.59
2022-10-01T02:04:05.648Z,98563.97
2022-10-01T02:06:44.317Z,98562.44
2022-10-01T02:09:18.987Z,98548.94
2022-10-01T02:11:54.470Z,98560.88
2022-10-01T02:14:32.811Z,98560.88
2022-10-01T02:17:07.136Z,98553.16
2022-10-01T02:19:40.536Z,98487.88
2022-10-01T02:22:14.363Z,98505.13
2022-10-01T02:24:44.730Z,98556.28
2022-10-01T02:27:20.581Z,98477.47
2022-10-01T02:29:52.203Z,98520.38
2022-10-01T02:32:21.847Z,98514.50
2022-10-01T02:34:52.375Z,98513.88
2022-10-01T02:37:25.831Z,98436.97
2022-10-01T02:39:56.476Z,98447.69
2022-10-01T02:42:28.720Z,98470.50
2022-10-01T02:45:02.860Z,98480.75
2022-10-01T02:47:35.898Z,98450.41
2022-10-01T02:50:05.325Z,98438.84
2022-10-01T02:52:39.681Z,98508.84
2022-10-01T02:55:11.920Z,98479.06
2022-10-01T02:57:40.500Z,98414.81
2022-10-01T03:00:14.385Z,98518.16
2022-10-01T03:02:42.431Z,98515.44
2022-10-01T03:05:11.149Z,98478.72
2022-10-01T03:07:40.990Z,98526.78
2022-10-01T03:10:11.112Z,98458.56
2022-10-01T03:12:45.266Z,98503.28
2022-10-01T03:15:16.923Z,98467.44
2022-10-01T03:17:45.202Z,98452.88
2022-10-01T03:20:13.754Z,98530.72
2022-10-01T03:22:41.898Z,98497.81
2022-10-01T03:25:12.861Z,98432.31
2022-10-01T03:27:41.278Z,98485.72
2022-10-01T03:30:10.490Z,98456.22
2022-10-01T03:32:40.198Z,98509.94
2022-10-01T03:35:10.668Z,98440.81
2022-10-01T03:37:38.902Z,98530.84
2022-10-01T03:40:08.351Z,98526.03
2022-10-01T03:42:36.473Z,98510.28
2022-10-01T03:45:05.052Z,98518.75
2022-10-01T03:47:33.308Z,98484.44
2022-10-01T03:50:06.094Z,98445.56
2022-10-01T03:52:34.291Z,98536.81
2022-10-01T03:55:02.568Z,98448.03
2022-10-01T03:57:30.794Z,98443.97
2022-10-01T03:59:59.049Z,98488.47
2022-10-01T04:02:27.858Z,98527.13
2022-10-01T04:04:58.182Z,98541.88
2022-10-01T04:07:27.783Z,98521.19
2022-10-01T04:09:55.952Z,98484.13
2022-10-01T04:12:24.108Z,98518.38
2022-10-01T04:14:52.217Z,98492.09
2022-10-01T04:17:20.903Z,98510.84
2022-10-01T04:19:49.007Z,98465.06
2022-10-01T04:22:17.174Z,98495.66
2022-10-01T04:24:46.804Z,98480.09
2022-10-01T04:27:15.505Z,98445.28
2022-10-01T04:29:43.703Z,98495.16
2022-10-01T04:32:11.979Z,98496.06
2022-10-01T04:34:55.217Z,98507.78
2022-10-01T04:37:24.830Z,98449.63
2022-10-01T04:39:58.409Z,98438.91
2022-10-01T04:42:26.611Z,98494.75
2022-10-01T04:44:54.896Z,98430.69
2022-10-01T04:47:23.146Z,98452.88
2022-10-01T04:49:51.336Z,98516.63
2022-10-01T04:52:19.431Z,98511.16
2022-10-01T04:54:47.448Z,98524.22
2022-10-01T04:57:16.947Z,98480.75
2022-10-01T04:59:45.251Z,98455.47
2022-10-01T05:02:15.605Z,98462.38
2022-10-01T05:04:43.979Z,98415.56
2022-10-01T05:07:12.217Z,98451.41
2022-10-01T05:09:40.406Z,98504.38
2022-10-01T05:12:08.798Z,98469.88
2022-10-01T05:14:38.556Z,98402.28
2022-10-01T05:17:07.229Z,98494.56
2022-10-01T05:19:38.328Z,98510.81
2022-10-01T05:22:06.553Z,98427.19
2022-10-01T05:24:34.626Z,98506.69
2022-10-01T05:27:02.854Z,98480.03
2022-10-01T05:29:33.758Z,98472.94
2022-10-01T05:32:03.322Z,98512.69
2022-10-01T05:34:32.082Z,98441.44
2022-10-01T05:37:00.992Z,98461.75
2022-10-01T05:39:29.178Z,98500.91
2022-10-01T05:42:01.493Z,98522.19
2022-10-01T05:44:38.030Z,98503.84
2022-10-01T05:47:08.660Z,98497.34
2022-10-01T05:49:36.907Z,98454.84
2022-10-01T05:52:05.387Z,98509.63
2022-10-01T05:54:33.550Z,98497.69
2022-10-01T05:57:01.642Z,98517.50
2022-10-01T05:59:31.837Z,98448.97
2022-10-01T06:02:00.470Z,98454.13
2022-10-01T06:04:30.028Z,98389.31
2022-10-01T06:06:58.172Z,98499.41
2022-10-01T06:09:26.519Z,98439.66
2022-10-01T06:11:55.400Z,98466.91
2022-10-01T06:14:23.654Z,98492.00
2022-10-01T06:16:55.119Z,98492.56
2022-10-01T06:19:23.390Z,98460.63
2022-10-01T06:21:53.249Z,98425.69
2022-10-01T06:24:21.564Z,98489.69
2022-10-01T06:36:13.261Z,98420.59
2022-10-01T06:38:43.235Z,98470.22
2022-10-01T06:41:11.775Z,98493.72
2022-10-01T06:43:40.197Z,98434.69
2022-10-01T06:46:08.445Z,98429.19
2022-10-01T06:48:37.321Z,98495.25
2022-10-01T06:51:46.959Z,98459.72
2022-10-01T06:54:29.358Z,98446.81
2022-10-01T06:56:57.663Z,98502.97
2022-10-01T06:59:27.090Z,98429.06
2022-10-01T07:01:56.527Z,98452.94
2022-10-01T07:04:25.359Z,98401.81
2022-10-01T07:06:53.702Z,98448.06
2022-10-01T07:09:25.319Z,98489.75
2022-10-01T07:11:54.694Z,98493.16
2022-10-01T07:14:22.991Z,98491.78
2022-10-01T07:16:51.001Z,98508.00
2022-10-01T07:19:19.078Z,98501.75
2022-10-01T07:21:49.227Z,98506.84
2022-10-01T07:24:17.275Z,98493.09
2022-10-01T07:26:51.046Z,98476.25
2022-10-01T07:29:19.068Z,98470.94
2022-10-01T07:31:47.174Z,98476.16
2022-10-01T07:34:15.212Z,98477.19
2022-10-01T07:36:45.551Z,98473.19
2022-10-01T07:39:13.645Z,98483.72
2022-10-01T07:41:43.321Z,98463.19
2022-10-01T07:44:12.964Z,98481.69
2022-10-01T07:46:41.499Z,98492.75
2022-10-01T07:49:10.488Z,98489.38
2022-10-01T07:51:38.500Z,98498.31
2022-10-01T07:54:07.282Z,98497.63
2022-10-01T07:56:35.397Z,98495.41
2022-10-01T07:59:03.507Z,98497.94
2022-10-01T08:01:33.522Z,98489.56
2022-10-01T08:04:22.200Z,98477.19
2022-10-01T08:06:50.264Z,98471.22
2022-10-01T08:09:18.467Z,98489.63
2022-10-01T08:11:48.287Z,98471.50
2022-10-01T08:14:19.294Z,98470.06
2022-10-01T08:16:48.771Z,98469.56
2022-10-01T08:19:17.271Z,98465.28
2022-10-01T08:21:45.227Z,98475.53
2022-10-01T08:24:13.248Z,98474.03
2022-10-01T08:26:41.344Z,98466.34
2022-10-01T08:29:11.638Z,98462.00
2022-10-01T08:31:42.859Z,98455.38
2022-10-01T08:34:12.260Z,98463.56
2022-10-01T08:36:40.268Z,98428.44
2022-10-01T08:39:10.228Z,98437.19
2022-10-01T08:41:49.927Z,98444.53
2022-10-01T08:44:22.933Z,98438.91
2022-10-01T08:46:53.035Z,98449.72
2022-10-01T08:49:27.776Z,98461.22
2022-10-01T08:52:02.531Z,98461.66
2022-10-01T08:54:36.611Z,98480.47
2022-10-01T08:57:09.501Z,98475.84
2022-10-01T08:59:41.765Z,98471.28
2022-10-01T09:02:24.625Z,98476.91
2022-10-01T09:05:01.293Z,98457.03
2022-10-01T09:07:51.074Z,98481.94
2022-10-01T09:10:29.044Z,98483.91
2022-10-01T09:13:16.904Z,98484.78
2022-10-01T09:15:52.046Z,98488.56
2022-10-01T09:18:33.708Z,98490.53
2022-10-01T09:21:04.001Z,98492.19
2022-10-01T09:23:38.704Z,98470.84
2022-10-01T09:26:11.491Z,98487.28
2022-10-01T09:28:42.159Z,98503.13
2022-10-01T09:31:17.937Z,98501.00
2022-10-01T09:33:53.227Z,98511.25
2022-10-01T09:36:27.402Z,98502.16
2022-10-01T09:39:06.429Z,98519.84
2022-10-01T09:41:34.737Z,98528.81
2022-10-01T09:44:03.043Z,98508.88
2022-10-01T09:46:31.595Z,98518.00
2022-10-01T09:49:05.123Z,98528.09
2022-10-01T09:51:41.957Z,98519.25
2022-10-01T09:54:17.737Z,98518.44
2022-10-01T09:56:52.147Z,98528.97
2022-10-01T09:59:25.584Z,98519.97
2022-10-01T10:01:57.494Z,98506.47
2022-10-01T10:04:25.998Z,98521.09
2022-10-01T10:07:02.732Z,98536.97
2022-10-01T10:09:33.015Z,98538.09
2022-10-01T10:12:01.472Z,98525.44
2022-10-01T10:14:33.304Z,98542.56
2022-10-01T10:17:06.706Z,98537.09
2022-10-01T10:19:35.609Z,98548.47
2022-10-01T10:22:13.901Z,98561.94
2022-10-01T10:24:43.001Z,98553.50
2022-10-01T10:27:25.290Z,98578.19
2022-10-01T10:30:02.884Z,98584.47
2022-10-01T10:32:31.172Z,98574.09
2022-10-01T10:35:05.825Z,98569.06
2022-10-01T10:37:41.018Z,98570.91
2022-10-01T10:40:09.694Z,98571.75
2022-10-01T10:42:39.060Z,98576.78
2022-10-01T10:45:17.788Z,98575.66
2022-10-01T10:47:47.679Z,98563.75
2022-10-01T10:50:31.436Z,98575.81
2022-10-01T10:53:01.166Z,98586.78
2022-10-01T10:55:31.788Z,98579.63
2022-10-01T10:58:11.459Z,98590.13
2022-10-01T11:00:47.809Z,98593.78
2022-10-01T11:03:18.957Z,98602.06
2022-10-01T11:05:51.614Z,98580.16
2022-10-01T11:08:26.555Z,98606.00
2022-10-01T11:11:07.461Z,98602.63
2022-10-01T11:13:49.783Z,98612.16
2022-10-01T11:16:38.196Z,98607.34
2022-10-01T11:19:33.525Z,98596.41
2022-10-01T11:22:22.935Z,98603.84
2022-10-01T11:25:06.841Z,98599.78
2022-10-01T11:27:46.871Z,98600.31
2022-10-01T11:30:20.242Z,98621.41
2022-10-01T11:33:02.999Z,98599.34
2022-10-01T11:35:45.348Z,98619.03
2022-10-01T11:38:39.756Z,98618.72
2022-10-01T11:41:14.855Z,98618.31
2022-10-01T11:43:45.972Z,98623.66
2022-10-01T11:46:21.059Z,98592.03
2022-10-01T11:48:57.352Z,98619.13
2022-10-01T11:51:33.254Z,98619.00
2022-10-01T11:54:07.351Z,98623.34
2022-10-01T11:56:59.528Z,98579.72
2022-10-01T11:59:34.756Z,98635.59
2022-10-01T12:02:15.851Z,98612.56
2022-10-01T12:04:50.176Z,98627.88
2022-10-01T12:07:27.172Z,98632.38
2022-10-01T12:10:02.759Z,98633.09
2022-10-01T12:12:37.158Z,98633.25
2022-10-01T12:15:11.308Z,98611.59
2022-10-01T12:17:45.485Z,98634.09
2022-10-01T12:20:24.583Z,98630.72
2022-10-01T12:22:54.996Z,98620.88
2022-10-01T12:25:30.157Z,98628.47
2022-10-01T12:28:07.416Z,98629.03
2022-10-01T12:30:43.093Z,98613.59
2022-10-01T12:33:35.854Z,98629.59
2022-10-01T12:36:13.595Z,98608.38
2022-10-01T12:39:06.154Z,98601.50
2022-10-01T12:41:46.255Z,98580.56
2022-10-01T12:44:29.263Z,98603.88
2022-10-01T12:47:12.616Z,98588.88
2022-10-01T12:49:48.349Z,98603.34
2022-10-01T12:52:26.280Z,98610.91
2022-10-01T12:55:08.495Z,98597.69
2022-10-01T12:57:47.685Z,98618.06
2022-10-01T13:00:20.695Z,98628.19
2022-10-01T13:03:27.329Z,98626.66
2022-10-01T13:06:07.548Z,98620.63
2022-10-01T13:08:49.173Z,98635.50
2022-10-01T13:11:25.573Z,98636.06
2022-10-01T13:13:54.815Z,98630.31
2022-10-01T13:16:31.071Z,98631.31
2022-10-01T13:19:05.351Z,98646.19
2022-10-01T13:21:52.827Z,98644.50
2022-10-01T13:24:27.591Z,98619.78
2022-10-01T13:27:01.503Z,98638.91
2022-10-01T13:29:45.247Z,98625.28
2022-10-01T13:32:29.725Z,98636.25
2022-10-01T13:34:58.935Z,98641.41
2022-10-01T13:37:38.516Z,98635.53
2022-10-01T13:40:24.817Z,98645.38
2022-10-01T13:42:54.910Z,98638.50
2022-10-01T13:45:27.660Z,98641.06
2022-10-01T13:48:13.513Z,98645.69
2022-10-01T13:50:43.210Z,98658.59
2022-10-01T13:53:17.889Z,98656.66
2022-10-01T13:55:47.954Z,98659.16
2022-10-01T13:58:34.434Z,98664.06
2022-10-01T14:01:04.866Z,98665.47
2022-10-01T14:03:44.102Z,98675.63
2022-10-01T14:06:19.611Z,98675.34
2022-10-01T14:08:52.223Z,98662.81
2022-10-01T14:11:44.066Z,98665.78
2022-10-01T14:14:32.795Z,98660.28
2022-10-01T14:17:04.196Z,98677.72
2022-10-01T14:19:33.740Z,98655.66
2022-10-01T14:22:17.601Z,98642.00
2022-10-01T14:25:01.921Z,98680.97
2022-10-01T14:27:36.359Z,98684.47
2022-10-01T14:30:07.944Z,98661.69
2022-10-01T14:32:52.351Z,98673.78
2022-10-01T14:35:31.268Z,98683.63
2022-10-01T14:38:01.654Z,98698.53
2022-10-01T14:40:38.764Z,98697.56
2022-10-01T14:43:17.781Z,98690.94
2022-10-01T14:45:57.033Z,98689.81
2022-10-01T14:48:26.065Z,98696.84
2022-10-01T14:50:57.931Z,98687.72
2022-10-01T14:53:28.145Z,98697.00
2022-10-01T14:55:59.190Z,98682.81
2022-10-01T14:58:31.368Z,98679.56
2022-10-01T15:01:00.477Z,98686.47
2022-10-01T15:03:28.587Z,98684.50
2022-10-01T15:06:06.423Z,98690.56
2022-10-01T15:08:42.204Z,98677.47
2022-10-01T15:11:15.329Z,98643.59
2022-10-01T15:13:45.800Z,98698.56
2022-10-01T15:16:15.422Z,98610.88
2022-10-01T15:18:48.196Z,98662.56
2022-10-01T15:21:22.305Z,98692.50
2022-10-01T15:23:50.892Z,98668.19
2022-10-01T15:26:23.655Z,98704.16
2022-10-01T15:29:02.292Z,98649.66
2022-10-01T15:31:30.525Z,98712.63
2022-10-01T15:34:01.323Z,98717.97
2022-10-01T15:36:31.195Z,98717.66
2022-10-01T15:39:00.759Z,98716.84
2022-10-01T15:41:32.971Z,98725.56
2022-10-01T15:44:04.263Z,98729.78
2022-10-01T15:46:35.269Z,98717.53
2022-10-01T15:49:18.155Z,98725.97
2022-10-01T15:52:07.773Z,98732.28
2022-10-01T15:54:37.204Z,98730.91
2022-10-01T15:57:06.527Z,98747.47
2022-10-01T15:59:35.931Z,98740.28
2022-10-01T16:02:10.330Z,98742.13
2022-10-01T16:04:38.665Z,98737.06
2022-10-01T16:07:08.097Z,98745.38
2022-10-01T16:09:36.113Z,98751.84
2022-10-01T16:12:06.940Z,98756.91
2022-10-01T16:14:39.434Z,98756.91
2022-10-01T16:17:35.070Z,98746.91
2022-10-01T16:20:43.362Z,98756.38
2022-10-01T16:23:44.056Z,98753.72
2022-10-01T16:26:33.324Z,98765.94
2022-10-01T16:29:04.037Z,98766.34
2022-10-01T16:31:32.763Z,98758.84
2022-10-01T16:34:00.896Z,98751.69
2022-10-01T16:36:35.055Z,98758.03
2022-10-01T16:39:06.778Z,98764.63
2022-10-01T16:41:35.559Z,98766.19
2022-10-01T16:44:07.462Z,98758.16
2022-10-01T16:46:36.883Z,98770.53
2022-10-01T16:49:12.784Z,98763.50
2022-10-01T16:51:42.393Z,98778.13
2022-10-01T16:54:21.915Z,98770.53
2022-10-01T16:56:52.829Z,98775.16
2022-10-01T16:59:22.865Z,98790.63
2022-10-01T17:01:55.779Z,98771.91
2022-10-01T17:04:29.255Z,98791.63
2022-10-01T17:06:59.779Z,98790.50
2022-10-01T17:09:29.268Z,98795.84
2022-10-01T17:11:58.069Z,98806.41
2022-10-01T17:14:26.343Z,98805.69
2022-10-01T17:16:54.597Z,98809.63
2022-10-01T17:19:23.111Z,98823.00
2022-10-01T17:21:51.143Z,98824.72
2022-10-01T17:24:19.152Z,98814.94
2022-10-01T17:26:48.478Z,98828.72
2022-10-01T17:29:16.586Z,98830.47
2022-10-01T17:31:47.927Z,98830.84
2022-10-01T17:34:15.983Z,98845.56
2022-10-01T17:36:45.675Z,98838.41
2022-10-01T17:39:13.665Z,98848.94
2022-10-01T17:41:41.678Z,98855.00
2022-10-01T17:44:11.076Z,98850.34
2022-10-01T17:46:39.045Z,98874.41
2022-10-01T17:49:08.377Z,98886.97
2022-10-01T17:51:36.841Z,98875.66
2022-10-01T17:54:05.071Z,98889.22
2022-10-01T17:56:33.407Z,98866.63
2022-10-01T17:59:01.577Z,98895.66
2022-10-01T18:01:31.421Z,98889.22
2022-10-01T18:04:00.767Z,98903.28
2022-10-01T18:06:29.646Z,98895.00
2022-10-01T18:08:57.622Z,98906.09
2022-10-01T18:11:26.683Z,98884.66
2022-10-01T18:13:54.672Z,98911.81
2022-10-01T18:16:23.776Z,98901.53
2022-10-01T18:21:45.556Z,98910.91
2022-10-01T18:24:13.577Z,98928.97
2022-10-01T18:26:41.593Z,98919.22
2022-10-01T18:29:09.627Z,98934.84
2022-10-01T18:31:40.684Z,98944.41
2022-10-01T18:34:19.429Z,98933.06
2022-10-01T18:36:56.312Z,98905.44
2022-10-01T18:39:29.918Z,98929.38
2022-10-01T18:41:58.840Z,98930.38
2022-10-01T18:44:27.535Z,98923.78
2022-10-01T18:47:16.495Z,98941.75
2022-10-01T18:50:11.507Z,98929.50
2022-10-01T18:52:48.640Z,98947.09
2022-10-01T18:55:47.877Z,98933.59
2022-10-01T18:58:33.706Z,98944.81
2022-10-01T19:01:11.959Z,98970.63
2022-10-01T19:03:53.515Z,98965.22
2022-10-01T19:06:43.621Z,98959.56
2022-10-01T19:09:33.600Z,98987.97
2022-10-01T19:12:18.086Z,98986.25
2022-10-01T19:15:00.511Z,98980.88
2022-10-01T19:17:50.220Z,98994.13
2022-10-01T19:20:42.610Z,98989.47
2022-10-01T19:23:51.395Z,98991.59
2022-10-01T19:26:29.701Z,99005.69
2022-10-01T19:29:12.828Z,98996.78
2022-10-01T19:31:49.345Z,99023.25
2022-10-01T19:34:22.928Z,99026.06
2022-10-01T19:36:56.294Z,99011.03
2022-10-01T19:39:27.593Z,99006.66
2022-10-01T19:42:02.935Z,99024.81
2022-10-01T19:44:36.706Z,99022.81
2022-10-01T19:47:13.729Z,99033.00
2022-10-01T19:49:44.890Z,99043.09
2022-10-01T19:52:18.557Z,99049.13
2022-10-01T19:54:52.665Z,99049.41
2022-10-01T19:57:26.114Z,99063.63
2022-10-01T20:00:12.842Z,99057.56
2022-10-01T20:02:48.759Z,99017.56
2022-10-01T20:05:22.095Z,99088.50
2022-10-01T20:07:59.460Z,99090.47
2022-10-01T20:10:34.057Z,99089.22
2022-10-01T20:13:23.354Z,99065.25
2022-10-01T20:16:01.187Z,99082.56
2022-10-01T20:18:38.749Z,99102.50
2022-10-01T20:21:23.487Z,99110.38
2022-10-01T20:23:59.368Z,99110.31
2022-10-01T20:26:38.798Z,99118.84
2022-10-01T20:29:32.353Z,99115.59
2022-10-01T20:32:08.952Z,99116.44
2022-10-01T20:34:47.495Z,99090.66
2022-10-01T20:37:35.161Z,99121.94
2022-10-01T20:40:07.080Z,99113.91
2022-10-01T20:42:44.304Z,99105.41
2022-10-01T20:45:20.203Z,99124.59
2022-10-01T20:47:55.949Z,99109.94
2022-10-01T20:50:28.569Z,99119.38
2022-10-01T20:53:14.247Z,99113.59
2022-10-01T20:55:52.456Z,99116.81
2022-10-01T20:58:24.824Z,99110.31
2022-10-01T21:01:02.710Z,99108.97
2022-10-01T21:06:22.620Z,99042.13
2022-10-01T21:08:55.997Z,99117.91
2022-10-01T21:11:34.023Z,99105.81
2022-10-01T21:14:11.361Z,99117.22
2022-10-01T21:17:18.872Z,99138.66
2022-10-01T21:20:03.125Z,99134.97
2022-10-01T21:22:46.738Z,99153.75
2022-10-01T21:25:26.331Z,99148.06
2022-10-01T21:28:31.372Z,99146.50
2022-10-01T21:31:15.005Z,99147.81
2022-10-01T21:33:54.608Z,99144.97
2022-10-01T21:36:29.090Z,99143.06
2022-10-01T21:39:04.152Z,99153.94
2022-10-01T21:41:48.433Z,99146.97
2022-10-01T21:44:56.294Z,99157.22
2022-10-01T21:47:37.350Z,99162.16
2022-10-01T21:50:24.266Z,99141.31
2022-10-01T21:53:08.028Z,99155.16
2022-10-01T21:55:59.013Z,99168.50
2022-10-01T21:58:44.187Z,99176.97
2022-10-01T22:01:21.880Z,99146.69
2022-10-01T22:03:56.889Z,99158.00
2022-10-01T22:06:33.446Z,99111.91
2022-10-01T22:09:12.081Z,99096.88
2022-10-01T22:11:47.224Z,99117.91
2022-10-01T22:14:18.640Z,99171.41
2022-10-01T22:16:53.248Z,99168.88
2022-10-01T22:19:29.067Z,99129.16
2022-10-01T22:22:05.105Z,99167.69
2022-10-01T22:24:40.429Z,99135.41
2022-10-01T22:27:13.529Z,99189.72
2022-10-01T22:29:46.529Z,99100.22
2022-10-01T22:32:18.687Z,99102.59
2022-10-01T22:34:54.522Z,99144.34
2022-10-01T22:37:30.596Z,99181.53
2022-10-01T22:40:02.371Z,99176.81
2022-10-01T22:42:35.589Z,99169.44
2022-10-01T22:45:13.815Z,99172.53
2022-10-01T22:47:58.420Z,99154.88
2022-10-01T22:50:35.495Z,99199.94
2022-10-01T22:53:19.514Z,99196.06
2022-10-01T22:55:54.665Z,99199.69
2022-10-01T22:58:46.718Z,99134.44
2022-10-01T23:01:30.339Z,99212.31
2022-10-01T23:04:16.690Z,99204.94
2022-10-01T23:06:56.597Z,99177.09
2022-10-01T23:09:31.825Z,99170.09
2022-10-01T23:12:10.555Z,99210.75
2022-10-01T23:14:58.505Z,99173.84
2022-10-01T23:17:33.764Z,99165.16
2022-10-01T23:20:17.336Z,99170.84
2022-10-01T23:23:03.570Z,99153.69
2022-10-01T23:25:45.287Z,99175.47
2022-10-01T23:28:24.867Z,99211.50
2022-10-01T23:31:01.867Z,99221.63
2022-10-01T23:33:45.653Z,99217.47
2022-10-01T23:36:29.572Z,99231.66
2022-10-01T23:39:25.894Z,99239.66
2022-10-01T23:42:02.252Z,99241.22
2022-10-01T23:44:36.933Z,99216.13
2022-10-01T23:47:11.123Z,99213.22
2022-10-01T23:49:45.573Z,99232.72
2022-10-01T23:52:20.670Z,99248.47
2022-10-01T23:54:53.095Z,99243.84
2022-10-01T23:57:28.663Z,99257.09
